createdAt,value
2018-09-17T00:02:23.455Z,22.10
2018-09-17T00:04:51.063Z,18.30
2018-09-17T00:07:18.836Z,20.53
2018-09-17T00:09:46.445Z,18.57
2018-09-17T00:12:14.123Z,21.70
2018-09-17T00:14:41.741Z,20.43
2018-09-17T00:17:09.357Z,22.53
2018-09-17T00:19:36.935Z,22.60
2018-09-17T00:22:04.644Z,19.37
2018-09-17T00:24:32.392Z,19.23
2018-09-17T00:26:59.971Z,22.40
2018-09-17T00:29:27.536Z,20.33
2018-09-17T00:31:55.620Z,23.90
2018-09-17T00:34:23.202Z,23.33
2018-09-17T00:36:50.765Z,23.00
2018-09-17T00:39:18.366Z,24.77
2018-09-17T00:41:46.080Z,21.67
2018-09-17T00:44:13.678Z,21.90
2018-09-17T00:46:41.244Z,23.23
2018-09-17T00:49:08.812Z,18.97
2018-09-17T00:51:36.468Z,22.03
2018-09-17T00:54:05.065Z,19.07
2018-09-17T00:56:32.637Z,22.50
2018-09-17T00:59:00.280Z,20.63
2018-09-17T01:01:27.840Z,23.33
2018-09-17T01:03:55.504Z,20.57
2018-09-17T01:06:23.100Z,20.90
2018-09-17T01:08:50.643Z,23.53
2018-09-17T01:11:18.201Z,22.00
2018-09-17T01:13:45.888Z,24.67
2018-09-17T01:16:13.475Z,21.13
2018-09-17T01:18:41.029Z,20.00
2018-09-17T01:21:09.137Z,28.93
2018-09-17T01:23:37.433Z,20.83
2018-09-17T01:26:06.089Z,22.33
2018-09-17T01:28:33.715Z,23.73
2018-09-17T01:31:01.300Z,23.37
2018-09-17T01:33:28.871Z,21.70
2018-09-17T01:35:56.457Z,24.03
2018-09-17T01:38:25.060Z,21.73
2018-09-17T01:40:52.789Z,22.73
2018-09-17T01:43:20.433Z,21.50
2018-09-17T01:45:48.220Z,21.23
2018-09-17T01:48:15.793Z,21.10
2018-09-17T01:50:43.343Z,26.10
2018-09-17T01:53:10.928Z,23.73
2018-09-17T01:55:38.469Z,22.17
2018-09-17T01:58:06.092Z,21.70
2018-09-17T02:00:33.780Z,22.33
2018-09-17T02:03:02.374Z,19.67
2018-09-17T02:05:29.976Z,19.13
2018-09-17T02:07:57.536Z,22.63
2018-09-17T02:10:26.144Z,22.70
2018-09-17T02:12:53.736Z,21.87
2018-09-17T02:15:21.325Z,20.93
2018-09-17T02:17:48.915Z,24.20
2018-09-17T02:20:16.500Z,21.73
2018-09-17T02:22:44.156Z,22.13
2018-09-17T02:25:11.748Z,19.60
2018-09-17T02:27:39.359Z,23.07
2018-09-17T02:30:06.993Z,24.97
2018-09-17T02:32:34.620Z,24.40
2018-09-17T02:35:02.188Z,21.93
2018-09-17T02:37:29.772Z,28.50
2018-09-17T02:39:57.336Z,25.77
2018-09-17T02:42:24.912Z,22.07
2018-09-17T02:44:52.508Z,24.80
2018-09-17T02:47:20.080Z,23.23
2018-09-17T02:49:47.691Z,27.20
2018-09-17T02:52:15.286Z,27.50
2018-09-17T02:54:43.072Z,27.23
2018-09-17T02:57:11.118Z,24.90
2018-09-17T02:59:38.684Z,24.87
2018-09-17T03:02:06.289Z,23.03
2018-09-17T03:04:33.920Z,23.63
2018-09-17T03:07:01.484Z,26.77
2018-09-17T03:09:29.069Z,21.70
2018-09-17T03:11:56.782Z,19.43
2018-09-17T03:14:27.735Z,25.00
2018-09-17T03:17:05.420Z,24.10
2018-09-17T03:19:33.164Z,25.57
2018-09-17T03:22:00.727Z,20.10
2018-09-17T03:24:28.357Z,23.03
2018-09-17T03:26:56.005Z,23.77
2018-09-17T03:29:23.596Z,22.47
2018-09-17T03:31:51.152Z,23.60
2018-09-17T03:34:19.258Z,21.33
2018-09-17T03:36:46.834Z,22.83
2018-09-17T03:39:14.413Z,23.27
2018-09-17T03:41:43.104Z,20.87
2018-09-17T03:44:11.123Z,21.93
2018-09-17T03:46:38.755Z,19.60
2018-09-17T03:49:07.148Z,16.37
2018-09-17T03:51:34.852Z,16.33
2018-09-17T03:54:02.457Z,15.53
2018-09-17T03:56:30.013Z,16.33
2018-09-17T03:58:57.564Z,19.87
2018-09-17T04:01:25.135Z,15.53
2018-09-17T04:03:52.776Z,17.20
2018-09-17T04:06:20.360Z,16.43
2018-09-17T04:08:47.963Z,16.03
2018-09-17T04:11:15.507Z,19.40
2018-09-17T04:13:43.080Z,20.50
2018-09-17T04:16:11.360Z,14.73
2018-09-17T04:18:38.968Z,17.73
2018-09-17T04:21:06.556Z,17.80
2018-09-17T04:23:35.176Z,17.53
2018-09-17T04:26:04.060Z,21.70
2018-09-17T04:28:31.818Z,22.60
2018-09-17T04:31:00.073Z,18.27
2018-09-17T04:33:29.556Z,18.83
2018-09-17T04:35:57.148Z,18.03
2018-09-17T04:38:24.773Z,24.63
2018-09-17T04:40:52.582Z,17.50
2018-09-17T04:43:20.157Z,17.90
2018-09-17T04:45:48.024Z,16.17
2018-09-17T04:48:15.635Z,20.13
2018-09-17T04:50:43.224Z,19.07
2018-09-17T04:53:10.792Z,19.37
2018-09-17T04:55:39.436Z,20.47
2018-09-17T04:58:08.178Z,22.83
2018-09-17T05:00:35.779Z,26.27
2018-09-17T05:03:03.384Z,20.33
2018-09-17T05:05:30.972Z,20.00
2018-09-17T05:07:58.544Z,15.20
2018-09-17T05:10:26.112Z,17.43
2018-09-17T05:12:53.730Z,17.77
2018-09-17T05:15:21.305Z,17.67
2018-09-17T05:17:49.372Z,16.30
2018-09-17T05:20:17.017Z,19.90
2018-09-17T05:22:44.597Z,16.67
2018-09-17T05:25:12.960Z,14.90
2018-09-17T05:27:40.597Z,16.30
2018-09-17T05:30:09.008Z,15.90
2018-09-17T05:32:37.370Z,18.83
2018-09-17T05:35:05.068Z,14.47
2018-09-17T05:37:32.646Z,19.97
2018-09-17T05:40:01.257Z,18.17
2018-09-17T05:42:28.865Z,18.53
2018-09-17T05:44:56.456Z,17.93
2018-09-17T05:47:24.268Z,19.27
2018-09-17T05:49:51.828Z,15.53
2018-09-17T05:52:19.447Z,14.50
2018-09-17T05:54:47.077Z,13.70
2018-09-17T05:57:14.698Z,18.50
2018-09-17T05:59:42.991Z,13.70
2018-09-17T06:02:10.532Z,16.03
2018-09-17T06:04:39.100Z,11.67
2018-09-17T06:07:06.733Z,13.40
2018-09-17T06:09:34.382Z,14.03
2018-09-17T06:12:01.962Z,11.97
2018-09-17T06:14:29.662Z,12.23
2018-09-17T06:16:57.277Z,12.47
2018-09-17T06:19:24.914Z,10.40
2018-09-17T06:21:52.588Z,11.90
2018-09-17T06:24:20.188Z,13.57
2018-09-17T06:26:47.857Z,13.13
2018-09-17T06:29:15.456Z,16.30
2018-09-17T06:31:43.604Z,15.87
2018-09-17T06:34:11.227Z,15.53
2018-09-17T06:36:38.796Z,14.00
2018-09-17T06:39:07.567Z,17.83
2018-09-17T06:41:35.185Z,10.87
2018-09-17T06:44:02.824Z,11.03
2018-09-17T06:46:31.466Z,10.70
2018-09-17T06:48:59.076Z,11.47
2018-09-17T06:51:27.736Z,10.90
2018-09-17T06:53:55.680Z,10.67
2018-09-17T06:56:23.257Z,11.13
2018-09-17T06:58:50.900Z,10.80
2018-09-17T07:01:18.530Z,10.20
2018-09-17T07:03:46.576Z,9.77
2018-09-17T07:06:14.219Z,12.13
2018-09-17T07:08:41.829Z,9.90
2018-09-17T07:11:10.051Z,9.63
2018-09-17T07:13:37.637Z,10.87
2018-09-17T07:16:05.283Z,10.70
2018-09-17T07:18:32.908Z,9.50
2018-09-17T07:21:01.328Z,9.33
2018-09-17T07:23:28.949Z,9.93
2018-09-17T07:25:56.909Z,9.73
2018-09-17T07:28:24.498Z,9.40
2018-09-17T07:30:52.097Z,7.47
2018-09-17T07:33:19.744Z,8.03
2018-09-17T07:35:47.364Z,7.17
2018-09-17T07:38:14.988Z,6.57
2018-09-17T07:40:42.600Z,8.00
2018-09-17T07:43:10.292Z,7.43
2018-09-17T07:45:37.885Z,6.53
2018-09-17T07:48:05.576Z,7.27
2018-09-17T07:50:33.112Z,7.23
2018-09-17T07:53:00.741Z,7.90
2018-09-17T07:55:28.325Z,7.50
2018-09-17T07:57:55.927Z,8.03
2018-09-17T08:00:23.520Z,8.60
2018-09-17T08:02:51.113Z,7.27
2018-09-17T08:05:18.672Z,9.77
2018-09-17T08:07:47.678Z,6.90
2018-09-17T08:10:20.292Z,6.60
2018-09-17T08:12:48.529Z,8.27
2018-09-17T08:15:17.864Z,7.03
2018-09-17T08:17:45.528Z,7.33
2018-09-17T08:20:13.085Z,7.50
2018-09-17T08:22:40.853Z,7.87
2018-09-17T08:25:09.204Z,7.30
2018-09-17T08:27:36.825Z,8.00
2018-09-17T08:30:04.636Z,7.37
2018-09-17T08:32:32.766Z,8.30
2018-09-17T08:35:00.358Z,7.77
2018-09-17T08:37:27.932Z,7.70
2018-09-17T08:39:55.521Z,8.03
2018-09-17T08:42:23.089Z,8.57
2018-09-17T08:44:51.705Z,10.37
2018-09-17T08:47:19.301Z,7.37
2018-09-17T08:49:47.060Z,7.57
2018-09-17T08:52:15.365Z,7.50
2018-09-17T08:54:48.752Z,7.80
2018-09-17T08:57:22.033Z,9.50
2018-09-17T09:00:58.289Z,8.87
2018-09-17T09:03:29.122Z,7.37
2018-09-17T09:06:02.297Z,8.53
2018-09-17T09:08:29.897Z,8.10
2018-09-17T09:11:03.041Z,7.63
2018-09-17T09:13:33.624Z,7.63
2018-09-17T09:16:01.765Z,7.43
2018-09-17T09:18:29.866Z,7.50
2018-09-17T09:20:57.924Z,8.07
2018-09-17T09:23:26.529Z,7.13
2018-09-17T09:25:54.099Z,7.50
2018-09-17T09:28:21.680Z,8.00
2018-09-17T09:30:49.347Z,8.33
2018-09-17T09:33:16.883Z,7.13
2018-09-17T09:35:45.143Z,10.30
2018-09-17T09:38:12.765Z,8.00
2018-09-17T09:40:40.429Z,6.80
2018-09-17T09:43:07.981Z,7.70
2018-09-17T09:45:35.552Z,7.63
2018-09-17T09:48:03.213Z,6.93
2018-09-17T09:50:30.773Z,6.80
2018-09-17T09:52:59.000Z,7.37
2018-09-17T09:55:26.560Z,8.00
2018-09-17T09:57:54.140Z,7.50
2018-09-17T10:00:27.368Z,8.00
2018-09-17T10:03:01.798Z,6.63
2018-09-17T10:05:29.763Z,7.13
2018-09-17T10:07:57.320Z,8.03
2018-09-17T10:10:31.423Z,6.83
2018-09-17T10:13:04.612Z,8.53
2018-09-17T10:15:34.724Z,7.03
2018-09-17T10:18:08.126Z,7.20
2018-09-17T10:20:35.700Z,13.73
2018-09-17T10:23:03.240Z,7.80
2018-09-17T10:25:31.444Z,6.20
2018-09-17T10:27:58.999Z,6.57
2018-09-17T10:30:26.564Z,6.70
2018-09-17T10:32:54.137Z,7.33
2018-09-17T10:35:21.724Z,7.73
2018-09-17T10:37:49.309Z,6.60
2018-09-17T10:40:16.872Z,6.30
2018-09-17T10:42:44.456Z,7.77
2018-09-17T10:45:12.004Z,6.47
2018-09-17T10:47:40.580Z,5.93
2018-09-17T10:50:08.156Z,6.23
2018-09-17T10:52:35.777Z,6.43
2018-09-17T10:55:03.376Z,6.10
2018-09-17T10:57:30.953Z,6.30
2018-09-17T10:59:58.526Z,6.87
2018-09-17T11:02:26.107Z,9.60
2018-09-17T11:04:53.739Z,6.80
2018-09-17T11:07:21.314Z,5.97
2018-09-17T11:09:48.877Z,5.70
2018-09-17T11:12:16.477Z,5.93
2018-09-17T11:14:44.056Z,5.83
2018-09-17T11:17:11.641Z,6.30
2018-09-17T11:19:39.275Z,6.30
2018-09-17T11:22:06.840Z,6.10
2018-09-17T11:24:34.393Z,6.63
2018-09-17T11:27:01.985Z,8.10
2018-09-17T11:29:29.563Z,6.20
2018-09-17T11:31:57.159Z,6.23
2018-09-17T11:34:24.717Z,6.33
2018-09-17T11:36:52.286Z,6.13
2018-09-17T11:39:19.854Z,5.57
2018-09-17T11:41:47.478Z,6.77
2018-09-17T11:44:15.073Z,5.63
2018-09-17T11:46:42.628Z,5.53
2018-09-17T11:49:10.200Z,4.83
2018-09-17T11:51:37.766Z,5.87
2018-09-17T11:54:05.449Z,5.37
2018-09-17T11:56:32.978Z,6.07
2018-09-17T11:59:00.530Z,5.77
2018-09-17T12:01:33.741Z,5.17
2018-09-17T12:04:06.924Z,5.40
2018-09-17T12:06:40.294Z,5.70
2018-09-17T12:09:09.100Z,7.33
2018-09-17T12:11:36.840Z,5.80
2018-09-17T12:14:04.411Z,6.07
2018-09-17T12:16:32.012Z,6.03
2018-09-17T12:18:59.577Z,5.70
2018-09-17T12:21:27.617Z,5.77
2018-09-17T12:23:55.269Z,6.30
2018-09-17T12:26:22.864Z,5.90
2018-09-17T12:28:50.410Z,6.93
2018-09-17T12:31:17.997Z,6.40
2018-09-17T12:33:45.648Z,5.70
2018-09-17T12:36:13.529Z,5.87
2018-09-17T12:38:41.161Z,6.00
2018-09-17T12:41:08.737Z,5.90
2018-09-17T12:43:37.269Z,5.97
2018-09-17T12:46:05.055Z,6.73
2018-09-17T12:48:32.627Z,5.03
2018-09-17T12:51:00.391Z,9.40
2018-09-17T12:53:28.022Z,4.60
2018-09-17T12:55:55.597Z,4.80
2018-09-17T12:58:23.185Z,4.50
2018-09-17T13:00:50.824Z,4.90
2018-09-17T13:03:19.430Z,4.93
2018-09-17T13:05:48.100Z,4.97
2018-09-17T13:08:15.676Z,4.97
2018-09-17T13:10:43.365Z,4.73
2018-09-17T13:13:10.908Z,5.27
2018-09-17T13:15:44.184Z,5.20
2018-09-17T13:18:11.840Z,4.70
2018-09-17T13:20:39.820Z,4.73
2018-09-17T13:23:07.484Z,4.67
2018-09-17T13:25:35.097Z,4.30
2018-09-17T13:28:02.756Z,4.37
2018-09-17T13:30:30.353Z,4.73
2018-09-17T13:35:56.561Z,4.20
2018-09-17T13:38:23.774Z,4.90
2018-09-17T13:40:50.992Z,4.60
2018-09-17T13:43:18.228Z,4.60
2018-09-17T13:45:45.534Z,4.43
2018-09-17T13:48:12.738Z,4.30
2018-09-17T13:50:40.426Z,3.63
2018-09-17T13:53:07.713Z,6.20
2018-09-17T13:55:34.897Z,4.93
2018-09-17T13:58:02.140Z,4.83
2018-09-17T14:00:29.454Z,5.43
2018-09-17T14:02:56.880Z,4.13
2018-09-17T14:05:24.145Z,4.20
2018-09-17T14:07:51.383Z,3.70
2018-09-17T14:10:18.721Z,3.63
2018-09-17T14:12:45.840Z,5.10
2018-09-17T14:15:13.076Z,5.27
2018-09-17T14:17:40.287Z,5.23
2018-09-17T14:20:07.529Z,5.87
2018-09-17T14:22:34.786Z,4.20
2018-09-17T14:25:02.099Z,4.10
2018-09-17T14:27:29.372Z,4.67
2018-09-17T14:29:56.640Z,4.60
2018-09-17T14:32:29.572Z,4.83
2018-09-17T14:34:56.788Z,4.60
2018-09-17T14:37:24.037Z,4.77
2018-09-17T14:39:51.260Z,5.27
2018-09-17T14:42:18.504Z,4.93
2018-09-17T14:44:45.786Z,5.40
2018-09-17T14:47:13.011Z,5.20
2018-09-17T14:49:40.239Z,4.40
2018-09-17T14:52:07.444Z,4.87
2018-09-17T14:54:34.744Z,4.30
2018-09-17T14:57:01.885Z,4.93
2018-09-17T14:59:29.148Z,5.07
2018-09-17T15:01:56.437Z,6.90
2018-09-17T15:04:23.790Z,5.90
2018-09-17T15:06:51.008Z,4.90
2018-09-17T15:09:18.203Z,5.20
2018-09-17T15:11:45.445Z,5.40
2018-09-17T15:14:12.861Z,5.10
2018-09-17T15:16:40.304Z,5.17
2018-09-17T15:19:07.584Z,4.80
2018-09-17T15:21:34.817Z,6.00
2018-09-17T15:24:02.193Z,5.90
2018-09-17T15:26:29.402Z,6.33
2018-09-17T15:28:56.636Z,6.07
2018-09-17T15:31:23.982Z,6.60
2018-09-17T15:33:51.068Z,6.50
2018-09-17T15:36:18.369Z,6.83
2018-09-17T15:38:45.610Z,7.50
2018-09-17T15:41:12.943Z,7.03
2018-09-17T15:43:41.081Z,5.63
2018-09-17T15:46:08.574Z,6.40
2018-09-17T15:48:35.762Z,6.23
2018-09-17T15:51:02.976Z,6.33
2018-09-17T15:53:30.187Z,6.70
2018-09-17T15:55:57.580Z,6.43
2018-09-17T15:58:24.910Z,6.87
2018-09-17T16:00:52.155Z,8.00
2018-09-17T16:03:19.364Z,6.73
2018-09-17T16:05:46.644Z,6.53
2018-09-17T16:08:13.853Z,5.80
2018-09-17T16:10:41.261Z,6.03
2018-09-17T16:13:08.485Z,5.93
2018-09-17T16:15:35.963Z,5.37
2018-09-17T16:18:03.532Z,5.80
2018-09-17T16:20:30.756Z,5.70
2018-09-17T16:22:57.987Z,9.23
2018-09-17T16:25:25.202Z,6.50
2018-09-17T16:27:52.614Z,6.60
2018-09-17T16:30:19.830Z,5.83
2018-09-17T16:32:47.044Z,6.17
2018-09-17T16:35:14.286Z,6.27
2018-09-17T16:37:41.535Z,6.43
2018-09-17T16:40:08.759Z,8.50
2018-09-17T16:42:36.000Z,6.43
2018-09-17T16:45:03.259Z,7.17
2018-09-17T16:47:30.463Z,9.23
2018-09-17T16:49:57.681Z,7.23
2018-09-17T16:52:25.906Z,6.50
2018-09-17T16:54:53.125Z,7.50
2018-09-17T16:57:20.333Z,7.30
2018-09-17T16:59:47.571Z,8.57
2018-09-17T17:02:14.801Z,8.03
2018-09-17T17:04:42.055Z,7.30
2018-09-17T17:07:09.325Z,14.70
2018-09-17T17:09:36.558Z,8.70
2018-09-17T17:12:03.773Z,8.40
2018-09-17T17:14:31.025Z,7.80
2018-09-17T17:16:58.268Z,8.37
2018-09-17T17:19:25.474Z,8.43
2018-09-17T17:21:52.777Z,17.30
2018-09-17T17:24:20.000Z,8.33
2018-09-17T17:26:47.185Z,7.20
2018-09-17T17:29:14.472Z,7.83
2018-09-17T17:31:41.697Z,8.10
2018-09-17T17:34:08.984Z,8.00
2018-09-17T17:36:36.186Z,9.27
2018-09-17T17:39:06.732Z,9.33
2018-09-17T17:41:33.937Z,8.47
2018-09-17T17:44:01.224Z,10.77
2018-09-17T17:46:28.495Z,8.70
2018-09-17T17:48:55.716Z,7.80
2018-09-17T17:51:22.940Z,10.50
2018-09-17T17:53:50.175Z,8.27
2018-09-17T17:56:17.530Z,10.20
2018-09-17T17:58:44.745Z,9.27
2018-09-17T18:01:12.083Z,8.00
2018-09-17T18:03:39.202Z,8.57
2018-09-17T18:06:06.444Z,10.30
2018-09-17T18:08:33.637Z,9.30
2018-09-17T18:11:00.884Z,9.60
2018-09-17T18:13:28.194Z,8.27
2018-09-17T18:15:55.699Z,7.83
2018-09-17T18:18:22.925Z,9.90
2018-09-17T18:20:50.134Z,13.37
2018-09-17T18:23:17.448Z,9.40
2018-09-17T18:25:44.672Z,10.13
2018-09-17T18:28:11.921Z,8.17
2018-09-17T18:30:39.140Z,10.13
2018-09-17T18:33:06.410Z,8.53
2018-09-17T18:35:33.636Z,10.57
2018-09-17T18:38:00.869Z,9.00
2018-09-17T18:40:28.105Z,11.63
2018-09-17T18:42:55.394Z,10.30
2018-09-17T18:45:22.615Z,11.13
2018-09-17T18:47:50.846Z,9.13
2018-09-17T18:50:18.170Z,9.47
2018-09-17T18:52:46.395Z,9.50
2018-09-17T18:55:13.803Z,9.90
2018-09-17T18:57:41.089Z,8.90
2018-09-17T19:00:08.682Z,10.33
2018-09-17T19:02:35.994Z,8.70
2018-09-17T19:05:03.357Z,13.20
2018-09-17T19:07:30.652Z,12.10
2018-09-17T19:09:57.980Z,8.73
2018-09-17T19:12:25.463Z,8.60
2018-09-17T19:14:58.329Z,10.97
2018-09-17T19:17:43.450Z,9.90
2018-09-17T19:20:11.474Z,10.93
2018-09-17T19:22:44.860Z,13.50
2018-09-17T19:25:14.379Z,10.00
2018-09-17T19:27:47.286Z,11.60
2018-09-17T19:30:15.089Z,8.13
2018-09-17T19:32:42.576Z,9.70
2018-09-17T19:35:10.523Z,11.13
2018-09-17T19:37:43.733Z,11.90
2018-09-17T19:40:20.490Z,12.13
2018-09-17T19:42:48.639Z,27.37
2018-09-17T19:45:21.735Z,12.07
2018-09-17T19:47:49.840Z,11.57
2018-09-17T19:50:22.838Z,11.60
2018-09-17T19:52:50.699Z,13.50
2018-09-17T19:55:17.949Z,12.27
2018-09-17T19:57:50.926Z,12.17
2018-09-17T20:00:18.224Z,16.23
2018-09-17T20:02:45.476Z,11.70
2018-09-17T20:05:18.557Z,10.07
2018-09-17T20:07:45.837Z,9.83
2018-09-17T20:10:13.199Z,14.50
2018-09-17T20:12:40.424Z,11.07
2018-09-17T20:15:07.828Z,10.60
2018-09-17T20:17:35.369Z,11.53
2018-09-17T20:20:02.616Z,10.80
2018-09-17T20:22:29.840Z,10.77
2018-09-17T20:24:57.068Z,10.40
2018-09-17T20:27:24.337Z,10.43
2018-09-17T20:29:51.596Z,10.53
2018-09-17T20:32:18.856Z,11.17
2018-09-17T20:34:46.111Z,12.60
2018-09-17T20:37:13.353Z,13.83
2018-09-17T20:39:40.592Z,12.63
2018-09-17T20:42:07.888Z,10.80
2018-09-17T20:44:35.109Z,17.70
2018-09-17T20:47:03.399Z,10.13
2018-09-17T20:49:30.712Z,13.10
2018-09-17T20:51:57.908Z,12.80
2018-09-17T20:54:25.173Z,11.70
2018-09-17T20:56:54.000Z,14.10
2018-09-17T20:59:21.241Z,12.80
2018-09-17T21:01:48.560Z,13.67
2018-09-17T21:04:15.778Z,10.93
2018-09-17T21:06:43.009Z,12.00
2018-09-17T21:09:17.587Z,11.80
2018-09-17T21:11:46.220Z,13.80
2018-09-17T21:14:14.047Z,12.37
2018-09-17T21:16:41.260Z,11.73
2018-09-17T21:19:08.526Z,14.50
2018-09-17T21:21:35.785Z,11.33
2018-09-17T21:24:03.276Z,11.67
2018-09-17T21:26:30.488Z,13.17
2018-09-17T21:28:57.736Z,12.30
2018-09-17T21:31:24.938Z,9.93
2018-09-17T21:33:52.228Z,10.07
2018-09-17T21:36:20.149Z,11.60
2018-09-17T21:38:47.383Z,12.73
2018-09-17T21:41:14.672Z,20.27
2018-09-17T21:43:41.892Z,13.97
2018-09-17T21:46:09.584Z,11.90
2018-09-17T21:48:36.812Z,10.53
2018-09-17T21:51:04.046Z,16.20
2018-09-17T21:53:31.282Z,12.33
2018-09-17T21:55:58.492Z,10.80
2018-09-17T21:58:25.775Z,12.40
2018-09-17T22:00:59.127Z,12.47
2018-09-17T22:03:26.448Z,11.37
2018-09-17T22:05:53.672Z,13.47
2018-09-17T22:08:21.196Z,12.57
2018-09-17T22:10:48.471Z,13.47
2018-09-17T22:13:15.714Z,16.63
2018-09-17T22:15:43.029Z,13.47
2018-09-17T22:18:10.227Z,11.70
2018-09-17T22:20:37.460Z,13.63
2018-09-17T22:23:04.740Z,12.30
2018-09-17T22:25:33.809Z,13.83
2018-09-17T22:28:01.172Z,12.03
2018-09-17T22:30:28.405Z,12.50
2018-09-17T22:32:55.638Z,11.63
2018-09-17T22:35:22.960Z,12.50
2018-09-17T22:37:50.172Z,11.47
2018-09-17T22:40:17.368Z,14.57
2018-09-17T22:42:44.812Z,11.70
2018-09-17T22:45:12.053Z,12.90
2018-09-17T22:47:39.261Z,11.10
2018-09-17T22:50:06.554Z,13.03
2018-09-17T22:52:33.821Z,10.87
2018-09-17T22:55:01.064Z,13.43
2018-09-17T22:57:28.304Z,13.67
2018-09-17T22:59:55.544Z,12.90
2018-09-17T23:02:22.806Z,14.83
2018-09-17T23:16:21.809Z,17.00
2018-09-17T23:18:49.060Z,14.60
2018-09-17T23:21:16.259Z,14.10
2018-09-17T23:23:43.465Z,13.40
2018-09-17T23:26:10.723Z,16.33
2018-09-17T23:28:37.952Z,13.70
2018-09-17T23:31:05.166Z,14.03
2018-09-17T23:33:32.388Z,14.83
2018-09-17T23:35:59.604Z,14.60
2018-09-17T23:38:26.795Z,13.30
2018-09-17T23:40:54.036Z,12.47
2018-09-17T23:43:21.284Z,14.63
2018-09-17T23:45:48.526Z,14.40
2018-09-17T23:48:15.728Z,14.37
2018-09-17T23:50:43.445Z,13.10
2018-09-17T23:53:10.643Z,15.30
2018-09-17T23:55:37.868Z,18.17
2018-09-17T23:58:05.137Z,14.03
